Contact Us:
Email: info@sawbill.com
Phone: (218)663-7150
Fax: (218)663-7980
Mail: 4620 Sawbill Trail
Box 2129
Tofte, MN 55615


Powered by
Movable Type 3.15
 
Sawbill Weather History Archives: May 2017
Current Sawbill Weather History | « April 2017 | June 2017 »


Date

High
Temperature

Low
Temperature

Barometric
Pressure

Relative
Humidity 7AM

9 AM
Temperature

Moisture

Snow

5/31/17 61 41 30.06 50% 49 0"
5/30/17 53 44 29.92 84% 45 0"
5/29/17 56 45 29.88 85% 45 .02"
5/28/17 58 47 29.86 90% 51 .17"
5/28/17 58 47 29.86 90% 51 .17"
5/27/17 69 47 29.90 70% 47 0"
5/26/17 65 37 29.96 89% 48 .12"
5/23/17 61 36 29.94 71% 37 0"
5/22/17 55 39 29.96 47% 50 .08"
5/21/17 55 50 29.80 91% 53 0"
5/20/17 47 41 29.92 92% 45 .30"
5/19/17 52 37 30.00 88% 42 .23"
5/18/17 55 33 30.24 53% 36 0"
5/17/17 53 33 30.22 71% 39 0"
5/16/17 58 37 29.94 89% 37 .76"
5/15/17 69 46 29.98 84% 50 0"
5/14/17 58 44 30.06 51% 46 Trace
5/13/17 61 41 30.06 36% 50 0"
5/12/17 64 39 30.04 66% 40 0"
5/11/17 58 38 30.10 67% 42 0"
5/10/17 62 37 30.08 59% 43 0"
5/9/17 59 36 30.00 38% 51 0"
5/8/17 52 26 30.10 39% 38 0"
5/6/17 54 25 30.12 56% 26 0"
5/4/17 58 33 30.00 82% 41 Trace
5/3/17 59 34 30.10 68% 40 Trace
5/2/17 50 31 30.02 79% 34 0"
5/1/17 38 33 29.84 77% 33 0"
 


Home I Trip Planning I Rentals and Outfitting I Reservations I Campgrounds I Sawbill Store I Sawbill News I Contact

© 1997 - 2017, Sawbill Canoe Outfitters, Inc. I Privacy Policy